createdAt,value
2023-04-03T00:02:02.772Z,12.49
2023-04-03T00:05:05.540Z,12.56
2023-04-03T00:08:08.923Z,12.41
2023-04-03T00:11:11.126Z,12.33
2023-04-03T00:14:12.576Z,12.28
2023-04-03T00:17:14.086Z,12.21
2023-04-03T00:20:15.600Z,12.22
2023-04-03T00:23:17.247Z,12.14
2023-04-03T00:26:18.804Z,12.20
2023-04-03T00:29:20.823Z,12.16
2023-04-03T00:32:22.326Z,12.20
2023-04-03T00:35:25.295Z,12.20
2023-04-03T00:38:27.383Z,12.15
2023-04-03T00:41:28.969Z,12.15
2023-04-03T00:44:36.477Z,12.05
2023-04-03T00:47:40.531Z,11.84
2023-04-03T00:50:44.508Z,11.88
2023-04-03T00:53:49.958Z,11.91
2023-04-03T00:56:54.320Z,11.97
2023-04-03T01:00:02.640Z,11.92
2023-04-03T01:03:04.589Z,11.79
2023-04-03T01:06:06.861Z,11.78
2023-04-03T01:09:08.619Z,11.78
2023-04-03T01:12:19.678Z,11.88
2023-04-03T01:15:25.516Z,11.91
2023-04-03T01:18:27.556Z,11.96
2023-04-03T01:21:55.564Z,12.01
2023-04-03T01:24:57.054Z,11.99
2023-04-03T01:27:58.634Z,12.02
2023-04-03T01:31:32.494Z,12.11
2023-04-03T01:34:34.171Z,12.10
2023-04-03T01:37:36.136Z,12.01
2023-04-03T01:40:38.328Z,11.98
2023-04-03T01:43:40.455Z,11.96
2023-04-03T01:46:43.219Z,11.97
2023-04-03T01:49:44.928Z,11.86
2023-04-03T01:52:46.612Z,11.78
2023-04-03T01:55:49.129Z,11.74
2023-04-03T01:58:50.664Z,11.73
2023-04-03T02:01:52.719Z,11.72
2023-04-03T02:04:54.318Z,11.80
2023-04-03T02:07:57.363Z,11.71
2023-04-03T02:10:58.912Z,11.72
2023-04-03T02:14:00.673Z,11.71
2023-04-03T02:17:06.256Z,11.65
2023-04-03T02:20:08.541Z,11.66
2023-04-03T02:23:10.713Z,11.74
2023-04-03T02:26:14.743Z,11.54
2023-04-03T02:29:16.402Z,11.53
2023-04-03T02:32:17.916Z,11.49
2023-04-03T02:35:21.135Z,11.39
2023-04-03T02:38:24.961Z,11.43
2023-04-03T02:41:29.362Z,11.30
2023-04-03T02:44:31.377Z,11.34
2023-04-03T02:47:33.253Z,11.16
2023-04-03T02:50:34.969Z,11.18
2023-04-03T02:53:36.584Z,11.19
2023-04-03T02:56:44.702Z,11.03
2023-04-03T02:59:46.227Z,11.03
2023-04-03T03:02:49.734Z,10.95
2023-04-03T03:05:51.355Z,11.02
2023-04-03T03:08:53.287Z,10.95
2023-04-03T03:11:55.196Z,11.05
2023-04-03T03:14:56.723Z,11.14
2023-04-03T03:17:58.204Z,11.13
2023-04-03T03:21:01.701Z,11.06
2023-04-03T03:24:03.712Z,10.97
2023-04-03T03:27:05.267Z,11.03
2023-04-03T03:30:07.478Z,11.09
2023-04-03T03:33:09.456Z,11.05
2023-04-03T03:36:11.758Z,11.11
2023-04-03T03:39:13.373Z,11.16
2023-04-03T03:42:14.938Z,11.29
2023-04-03T03:45:16.618Z,11.30
2023-04-03T03:48:18.179Z,11.34
2023-04-03T03:51:19.862Z,11.38
2023-04-03T03:54:21.468Z,11.34
2023-04-03T03:57:23.159Z,11.41
2023-04-03T04:00:24.766Z,11.49
2023-04-03T04:03:30.382Z,11.41
2023-04-03T04:06:32.032Z,11.40
2023-04-03T04:09:38.728Z,11.39
2023-04-03T04:12:40.735Z,11.31
2023-04-03T04:15:43.772Z,11.36
2023-04-03T04:18:45.358Z,11.42
2023-04-03T04:21:47.280Z,11.40
2023-04-03T04:24:49.542Z,11.44
2023-04-03T04:27:51.244Z,11.49
2023-04-03T04:30:53.266Z,11.50
2023-04-03T04:33:56.090Z,11.30
2023-04-03T04:36:57.900Z,11.28
2023-04-03T04:40:00.894Z,11.33
2023-04-03T04:43:02.642Z,11.43
2023-04-03T04:46:08.430Z,11.46
2023-04-03T04:49:14.656Z,11.47
2023-04-03T04:52:16.199Z,11.38
2023-04-03T04:55:18.071Z,11.43
2023-04-03T04:58:20.816Z,11.36
2023-04-03T05:01:22.900Z,11.38
2023-04-03T05:04:31.860Z,11.35
2023-04-03T05:07:39.975Z,11.25
2023-04-03T05:10:42.406Z,11.38
2023-04-03T05:13:45.757Z,11.50
2023-04-03T05:16:50.201Z,11.44
2023-04-03T05:19:53.532Z,11.45
2023-04-03T05:22:57.296Z,11.49
2023-04-03T05:25:59.102Z,11.44
2023-04-03T05:29:01.107Z,11.37
2023-04-03T05:32:03.436Z,11.30
2023-04-03T05:35:06.742Z,11.40
2023-04-03T05:38:08.761Z,11.39
2023-04-03T05:41:10.492Z,11.35
2023-04-03T05:44:12.407Z,11.33
2023-04-03T05:47:14.556Z,11.33
2023-04-03T05:50:16.503Z,11.41
2023-04-03T05:53:29.271Z,11.50
2023-04-03T05:56:33.819Z,11.53
2023-04-03T05:59:35.970Z,11.62
2023-04-03T06:02:37.723Z,11.69
2023-04-03T06:05:39.536Z,11.69
2023-04-03T06:08:42.366Z,11.69
2023-04-03T06:11:44.193Z,11.50
2023-04-03T06:14:45.838Z,11.59
2023-04-03T06:17:49.375Z,11.72
2023-04-03T06:20:51.412Z,11.77
2023-04-03T06:23:53.145Z,11.77
2023-04-03T06:26:54.676Z,11.65
2023-04-03T06:29:56.489Z,11.51
2023-04-03T06:32:57.979Z,11.61
2023-04-03T06:35:59.873Z,11.65
2023-04-03T06:39:02.631Z,11.61
2023-04-03T06:42:04.183Z,11.73
2023-04-03T06:45:12.825Z,11.83
2023-04-03T06:48:14.380Z,11.83
2023-04-03T06:51:27.740Z,12.12
2023-04-03T06:54:29.286Z,12.03
2023-04-03T06:57:30.806Z,12.21
2023-04-03T07:00:32.431Z,12.32
2023-04-03T07:03:34.549Z,12.13
2023-04-03T07:06:37.141Z,12.00
2023-04-03T07:09:38.587Z,12.19
2023-04-03T07:12:40.097Z,12.20
2023-04-03T07:15:41.526Z,12.31
2023-04-03T07:18:43.046Z,12.37
2023-04-03T07:21:45.522Z,12.60
2023-04-03T07:24:47.069Z,12.70
2023-04-03T07:27:50.053Z,12.73
2023-04-03T07:30:54.078Z,12.80
2023-04-03T07:33:55.578Z,12.81
2023-04-03T07:36:57.532Z,13.10
2023-04-03T07:40:00.031Z,13.45
2023-04-03T07:43:02.118Z,13.57
2023-04-03T07:46:06.229Z,13.81
2023-04-03T07:49:07.878Z,13.90
2023-04-03T07:52:10.076Z,13.56
2023-04-03T07:55:11.846Z,13.40
2023-04-03T07:58:16.548Z,13.58
2023-04-03T08:01:18.061Z,13.41
2023-04-03T08:04:19.576Z,13.36
2023-04-03T08:07:21.885Z,13.26
2023-04-03T08:10:23.349Z,13.21
2023-04-03T08:13:24.959Z,13.08
2023-04-03T08:16:27.873Z,13.15
2023-04-03T08:19:29.424Z,13.16
2023-04-03T08:22:31.605Z,12.95
2023-04-03T08:25:33.494Z,12.98
2023-04-03T08:28:35.331Z,13.23
2023-04-03T08:31:36.868Z,13.44
2023-04-03T08:34:40.372Z,13.32
2023-04-03T08:37:41.940Z,13.48
2023-04-03T08:40:43.489Z,13.39
2023-04-03T08:43:58.665Z,13.49
2023-04-03T08:47:25.259Z,13.70
2023-04-03T08:50:34.291Z,13.73
2023-04-03T08:53:43.292Z,13.50
2023-04-03T08:56:44.886Z,13.57
2023-04-03T08:59:46.459Z,13.57
2023-04-03T09:02:54.034Z,13.76
2023-04-03T09:06:00.951Z,13.64
2023-04-03T09:09:27.746Z,12.96
2023-04-03T09:12:35.590Z,12.60
2023-04-03T09:15:39.432Z,12.65
2023-04-03T09:18:49.810Z,12.71
2023-04-03T09:21:56.968Z,13.15
2023-04-03T09:25:06.875Z,13.61
2023-04-03T09:28:10.847Z,14.05
2023-04-03T09:31:21.599Z,14.34
2023-04-03T09:34:24.282Z,14.53
2023-04-03T09:37:34.920Z,14.88
2023-04-03T09:40:43.201Z,15.04
2023-04-03T09:43:54.323Z,14.76
2023-04-03T09:46:55.870Z,14.67
2023-04-03T09:50:15.523Z,14.58
2023-04-03T09:53:46.250Z,14.53
2023-04-03T09:56:56.564Z,14.54
2023-04-03T10:00:01.018Z,14.51
2023-04-03T10:03:04.052Z,14.24
2023-04-03T10:06:24.091Z,14.63
2023-04-03T10:09:34.129Z,14.72
2023-04-03T10:12:35.761Z,14.70
2023-04-03T10:15:43.848Z,14.83
2023-04-03T10:19:14.387Z,14.73
2023-04-03T10:22:44.057Z,15.00
2023-04-03T10:26:17.216Z,15.19
2023-04-03T10:29:46.250Z,14.37
2023-04-03T10:33:06.022Z,13.95
2023-04-03T10:36:18.774Z,14.11
2023-04-03T10:39:46.561Z,14.27
2023-04-03T10:43:07.423Z,14.44
2023-04-03T10:46:21.507Z,14.33
2023-04-03T10:49:57.129Z,14.04
2023-04-03T10:53:27.737Z,14.03
2023-04-03T10:56:38.032Z,14.26
2023-04-03T10:59:59.604Z,14.40
2023-04-03T11:03:07.325Z,14.20
2023-04-03T11:06:11.915Z,14.59
2023-04-03T11:09:25.711Z,15.35
2023-04-03T11:12:44.143Z,15.74
2023-04-03T11:15:50.946Z,15.68
2023-04-03T11:19:18.829Z,15.49
2023-04-03T11:22:31.573Z,15.50
2023-04-03T11:25:37.933Z,15.68
2023-04-03T11:28:40.772Z,15.88
2023-04-03T11:32:07.681Z,15.70
2023-04-03T11:35:10.670Z,15.43
2023-04-03T11:38:37.314Z,15.26
2023-04-03T11:41:38.960Z,15.64
2023-04-03T11:44:40.542Z,15.87
2023-04-03T11:48:24.794Z,15.54
2023-04-03T11:51:29.489Z,14.99
2023-04-03T11:54:46.712Z,14.78
2023-04-03T11:58:03.377Z,15.05
2023-04-03T12:01:07.816Z,15.11
2023-04-03T12:04:15.011Z,14.91
2023-04-03T12:07:19.910Z,15.01
2023-04-03T12:10:32.779Z,15.20
2023-04-03T12:13:40.917Z,15.06
2023-04-03T12:16:42.385Z,14.72
2023-04-03T12:19:45.879Z,14.67
2023-04-03T12:23:28.441Z,14.39
2023-04-03T12:26:54.491Z,14.31
2023-04-03T12:30:08.089Z,15.03
2023-04-03T12:33:25.119Z,15.60
2023-04-03T12:36:41.591Z,15.55
2023-04-03T12:39:53.702Z,15.08
2023-04-03T12:43:08.613Z,14.88
2023-04-03T12:46:10.941Z,14.71
2023-04-03T12:49:19.193Z,14.28
2023-04-03T12:52:42.385Z,14.08
2023-04-03T12:55:44.140Z,14.30
2023-04-03T12:58:45.830Z,14.47
2023-04-03T13:01:59.425Z,14.67
2023-04-03T13:05:11.028Z,14.83
2023-04-03T13:08:16.820Z,14.88
2023-04-03T13:11:21.303Z,14.94
2023-04-03T13:14:24.927Z,15.07
2023-04-03T13:17:28.584Z,14.90
2023-04-03T13:20:35.470Z,14.79
2023-04-03T13:23:41.757Z,14.86
2023-04-03T13:26:44.291Z,14.83
2023-04-03T13:29:52.355Z,14.49
2023-04-03T13:32:55.497Z,14.53
2023-04-03T13:36:02.816Z,15.02
2023-04-03T13:39:22.080Z,14.94
2023-04-03T13:42:28.466Z,14.68
2023-04-03T13:45:31.575Z,14.79
2023-04-03T13:48:39.216Z,14.62
2023-04-03T13:51:40.818Z,14.32
2023-04-03T13:54:48.089Z,14.17
2023-04-03T13:58:20.317Z,14.12
2023-04-03T14:01:23.515Z,14.35
2023-04-03T14:04:29.924Z,14.33
2023-04-03T14:07:32.141Z,14.36
2023-04-03T14:10:33.867Z,14.28
2023-04-03T14:13:35.434Z,14.06
2023-04-03T14:16:41.903Z,14.10
2023-04-03T14:19:44.065Z,14.42
2023-04-03T14:22:45.760Z,14.48
2023-04-03T14:25:47.407Z,14.59
2023-04-03T14:28:53.146Z,14.56
2023-04-03T14:32:07.405Z,14.46
2023-04-03T14:35:14.045Z,14.30
2023-04-03T14:38:30.993Z,14.27
2023-04-03T14:41:32.459Z,14.13
2023-04-03T14:44:33.970Z,14.07
2023-04-03T14:47:41.888Z,13.51
2023-04-03T14:50:51.669Z,13.43
2023-04-03T14:54:00.144Z,13.55
2023-04-03T14:57:02.682Z,13.74
2023-04-03T15:00:05.809Z,13.80
2023-04-03T15:03:07.381Z,13.86
2023-04-03T15:06:12.613Z,13.98
2023-04-03T15:09:26.818Z,14.06
2023-04-03T15:12:28.360Z,14.16
2023-04-03T15:15:31.090Z,14.23
2023-04-03T15:18:38.761Z,14.19
2023-04-03T15:21:40.764Z,14.24
2023-04-03T15:24:42.997Z,14.02
2023-04-03T15:27:45.298Z,14.06
2023-04-03T15:30:47.153Z,14.04
2023-04-03T15:33:48.702Z,13.84
2023-04-03T15:36:53.376Z,13.82
2023-04-03T15:39:55.171Z,13.77
2023-04-03T15:42:56.629Z,13.80
2023-04-03T15:46:00.409Z,13.76
2023-04-03T15:49:02.364Z,13.55
2023-04-03T15:52:04.708Z,13.51
2023-04-03T15:55:07.441Z,13.53
2023-04-03T15:58:09.631Z,13.51
2023-04-03T16:01:12.335Z,13.59
2023-04-03T16:04:15.605Z,13.60
2023-04-03T16:07:17.479Z,13.52
2023-04-03T16:10:19.360Z,13.53
2023-04-03T16:13:20.951Z,13.47
2023-04-03T16:16:24.537Z,13.23
2023-04-03T16:19:26.418Z,13.28
2023-04-03T16:22:29.947Z,13.38
2023-04-03T16:25:31.998Z,13.42
2023-04-03T16:28:33.599Z,13.32
2023-04-03T16:31:35.309Z,13.15
2023-04-03T16:34:36.884Z,13.19
2023-04-03T16:37:40.359Z,13.05
2023-04-03T16:40:42.295Z,12.82
2023-04-03T16:46:50.259Z,12.96
2023-04-03T16:49:51.923Z,12.93
2023-04-03T16:52:53.586Z,12.96
2023-04-03T16:55:55.629Z,12.58
2023-04-03T16:58:57.133Z,12.31
2023-04-03T17:01:58.693Z,12.28
2023-04-03T17:05:00.274Z,12.12
2023-04-03T17:08:02.773Z,12.02
2023-04-03T17:11:04.370Z,12.04
2023-04-03T17:14:06.426Z,11.96
2023-04-03T17:17:08.875Z,12.07
2023-04-03T17:20:11.311Z,12.09
2023-04-03T17:23:12.865Z,12.08
2023-04-03T17:26:14.329Z,12.03
2023-04-03T17:29:16.132Z,12.10
2023-04-03T17:32:17.786Z,12.10
2023-04-03T17:35:19.372Z,12.15
2023-04-03T17:38:20.852Z,12.00
2023-04-03T17:41:22.919Z,11.82
2023-04-03T17:44:24.464Z,11.70
2023-04-03T17:47:25.923Z,11.66
2023-04-03T17:50:28.693Z,11.44
2023-04-03T17:53:30.291Z,11.41
2023-04-03T17:56:31.937Z,11.53
2023-04-03T17:59:33.453Z,11.58
2023-04-03T18:02:34.938Z,11.54
2023-04-03T18:05:38.047Z,11.39
2023-04-03T18:08:47.042Z,11.44
2023-04-03T18:11:49.739Z,11.50
2023-04-03T18:14:51.300Z,11.58
2023-04-03T18:17:56.585Z,11.49
2023-04-03T18:20:58.420Z,11.26
2023-04-03T18:24:00.035Z,11.16
2023-04-03T18:27:15.428Z,10.96
2023-04-03T18:30:17.961Z,10.86
2023-04-03T18:33:19.543Z,10.70
2023-04-03T18:36:21.625Z,10.77
2023-04-03T18:39:24.773Z,10.81
2023-04-03T18:42:27.206Z,10.82
2023-04-03T18:45:29.107Z,10.78
2023-04-03T18:48:31.322Z,10.82
2023-04-03T18:51:32.966Z,10.92
2023-04-03T18:54:34.745Z,10.98
2023-04-03T18:57:36.226Z,10.90
2023-04-03T19:00:38.678Z,10.72
2023-04-03T19:03:40.919Z,10.67
2023-04-03T19:06:42.689Z,10.50
2023-04-03T19:09:44.425Z,10.42
2023-04-03T19:12:47.063Z,10.32
2023-04-03T19:15:48.926Z,10.18
2023-04-03T19:18:50.510Z,10.19
2023-04-03T19:21:52.094Z,10.24
2023-04-03T19:24:53.568Z,10.25
2023-04-03T19:27:55.101Z,10.30
2023-04-03T19:30:58.214Z,10.25
2023-04-03T19:34:00.436Z,10.25
2023-04-03T19:37:02.477Z,10.27
2023-04-03T19:40:04.846Z,10.12
2023-04-03T19:43:06.402Z,9.98
2023-04-03T19:46:09.197Z,9.88
2023-04-03T19:49:10.873Z,9.75
2023-04-03T19:52:12.384Z,9.58
2023-04-03T19:55:14.781Z,9.34
2023-04-03T19:58:16.332Z,9.36
2023-04-03T20:01:17.802Z,9.29
2023-04-03T20:04:19.443Z,9.22
2023-04-03T20:07:21.261Z,9.46
2023-04-03T20:10:22.722Z,9.50
2023-04-03T20:13:24.140Z,9.39
2023-04-03T20:16:26.225Z,9.27
2023-04-03T20:19:28.159Z,9.16
2023-04-03T20:22:32.241Z,9.09
2023-04-03T20:28:38.514Z,8.92
2023-04-03T20:31:42.000Z,8.87
2023-04-03T20:34:48.221Z,8.81
2023-04-03T20:37:59.615Z,8.78
2023-04-03T20:41:01.439Z,8.76
2023-04-03T20:44:03.634Z,8.67
2023-04-03T20:47:05.637Z,8.34
2023-04-03T20:50:08.171Z,8.35
2023-04-03T20:53:09.774Z,8.37
2023-04-03T20:56:12.148Z,8.29
2023-04-03T20:59:15.592Z,8.26
2023-04-03T21:02:17.499Z,8.22
2023-04-03T21:05:24.156Z,8.26
2023-04-03T21:09:03.350Z,8.43
2023-04-03T21:12:42.350Z,8.45
2023-04-03T21:15:47.762Z,8.37
2023-04-03T21:19:00.683Z,8.40
2023-04-03T21:22:02.409Z,8.34
2023-04-03T21:25:04.150Z,8.19
2023-04-03T21:28:06.094Z,8.12
2023-04-03T21:31:07.657Z,8.29
2023-04-03T21:34:09.232Z,8.38
2023-04-03T21:37:11.817Z,8.62
2023-04-03T21:40:13.512Z,8.60
2023-04-03T21:43:15.067Z,8.61
2023-04-03T21:46:17.014Z,8.55
2023-04-03T21:49:18.500Z,8.47
2023-04-03T21:52:19.963Z,8.36
2023-04-03T21:55:21.427Z,8.32
2023-04-03T21:58:41.041Z,8.20
2023-04-03T22:01:43.228Z,8.15
2023-04-03T22:04:47.015Z,8.15
2023-04-03T22:07:48.772Z,8.13
2023-04-03T22:10:50.416Z,8.10
2023-04-03T22:13:53.243Z,7.95
2023-04-03T22:16:54.783Z,7.52
2023-04-03T22:19:56.307Z,7.64
2023-04-03T22:22:57.775Z,7.58
2023-04-03T22:26:07.616Z,7.56
2023-04-03T22:29:09.141Z,7.58
2023-04-03T22:32:10.672Z,7.41
2023-04-03T22:35:12.498Z,8.32
2023-04-03T22:38:15.377Z,8.85
2023-04-03T22:41:17.326Z,8.84
2023-04-03T22:44:18.820Z,8.79
2023-04-03T22:47:20.257Z,8.77
2023-04-03T22:50:21.929Z,8.68
2023-04-03T22:53:23.473Z,8.62
2023-04-03T22:56:26.212Z,8.45
2023-04-03T22:59:27.872Z,7.91
2023-04-03T23:02:29.411Z,7.74
2023-04-03T23:05:31.053Z,6.42
2023-04-03T23:08:34.878Z,6.13
2023-04-03T23:11:36.660Z,6.35
2023-04-03T23:14:38.094Z,6.14
2023-04-03T23:17:39.558Z,6.35
2023-04-03T23:20:41.440Z,6.30
2023-04-03T23:23:43.084Z,6.44
2023-04-03T23:26:44.490Z,6.48
2023-04-03T23:29:46.041Z,6.48
2023-04-03T23:32:48.197Z,6.44
2023-04-03T23:35:49.692Z,6.30
2023-04-03T23:38:51.362Z,6.41
2023-04-03T23:41:53.312Z,6.77
2023-04-03T23:44:54.789Z,6.80
2023-04-03T23:47:56.237Z,6.77
2023-04-03T23:50:57.777Z,6.75
2023-04-03T23:53:59.253Z,6.75
2023-04-03T23:57:01.136Z,6.72
